LNI3RR WASS-WAMM
Flight info
| Callsign | LNI3RR |
|---|---|
| Flight time | 1h 10m |
| Altitude | 34000 |
| Route | FIMBA W67 SOSOK |
| Aircraft | B738/M-SDE2E3FGHIRWXY/LB1 |
Departure
| Time | 2026-05-01 09:15 |
|---|---|
| Airport | Domine Eduard Osok Airport (WASS) |
Arrival
| Time | 2026-05-01 10:26 |
|---|---|
| Airport | Sam Ratulangi International Airport (WAMM) |
| Time | Latitude | Longitude | Altitude | Speed | Heading |
|---|---|---|---|---|---|
| 2026-05-01 08:46 | -0.89175 | 131.29077 | 24 ft | 0 kts | 4° |
| 2026-05-01 09:07 | -0.89177 | 131.29077 | 24 ft | 1 kts | 4° |
| 2026-05-01 09:07 | -0.89191 | 131.29076 | 24 ft | 2 kts | 4° |
| 2026-05-01 09:08 | -0.89209 | 131.29073 | 24 ft | 3 kts | 34° |
| 2026-05-01 09:08 | -0.89219 | 131.29060 | 24 ft | 3 kts | 81° |
| 2026-05-01 09:08 | -0.89220 | 131.29043 | 24 ft | 1 kts | 93° |
| 2026-05-01 09:08 | -0.89219 | 131.29037 | 24 ft | 0 kts | 93° |
| 2026-05-01 09:10 | -0.89220 | 131.29044 | 24 ft | 5 kts | 93° |
| 2026-05-01 09:11 | -0.89223 | 131.29105 | 24 ft | 10 kts | 98° |
| 2026-05-01 09:11 | -0.89264 | 131.29154 | 27 ft | 10 kts | 165° |
| 2026-05-01 09:11 | -0.89333 | 131.29153 | 27 ft | 10 kts | 182° |
| 2026-05-01 09:11 | -0.89402 | 131.29158 | 28 ft | 10 kts | 146° |
| 2026-05-01 09:12 | -0.89428 | 131.29224 | 27 ft | 11 kts | 96° |
| 2026-05-01 09:12 | -0.89435 | 131.29315 | 27 ft | 16 kts | 94° |
| 2026-05-01 09:12 | -0.89444 | 131.29443 | 25 ft | 21 kts | 94° |
| 2026-05-01 09:12 | -0.89456 | 131.29606 | 25 ft | 26 kts | 94° |
| 2026-05-01 09:13 | -0.89468 | 131.29794 | 25 ft | 27 kts | 94° |
| 2026-05-01 09:13 | -0.89458 | 131.29963 | 29 ft | 13 kts | 83° |
| 2026-05-01 09:13 | -0.89464 | 131.29994 | 25 ft | 1 kts | 149° |
| 2026-05-01 09:13 | -0.89471 | 131.29990 | 25 ft | 3 kts | 210° |
| 2026-05-01 09:14 | -0.89479 | 131.29959 | 25 ft | 6 kts | 274° |
| 2026-05-01 09:14 | -0.89478 | 131.29954 | 25 ft | 0 kts | 274° |
| 2026-05-01 09:14 | -0.89471 | 131.29855 | 27 ft | 46 kts | 274° |
| 2026-05-01 09:15 | -0.89435 | 131.29283 | 25 ft | 117 kts | 274° |
| 2026-05-01 09:15 | -0.89392 | 131.28653 | 25 ft | 156 kts | 273° |
| 2026-05-01 09:15 | -0.89292 | 131.27080 | 791 ft | 164 kts | 275° |
| 2026-05-01 09:15 | -0.89179 | 131.25923 | 1473 ft | 173 kts | 283° |
| 2026-05-01 09:16 | -0.88870 | 131.24695 | 1915 ft | 195 kts | 287° |
| 2026-05-01 09:16 | -0.88415 | 131.23319 | 2139 ft | 219 kts | 290° |
| 2026-05-01 09:16 | -0.87870 | 131.21820 | 2368 ft | 238 kts | 291° |
| 2026-05-01 09:17 | -0.86692 | 131.18600 | 3113 ft | 263 kts | 290° |
| 2026-05-01 09:17 | -0.86056 | 131.16850 | 3711 ft | 270 kts | 290° |
| 2026-05-01 09:17 | -0.84763 | 131.13282 | 5186 ft | 275 kts | 290° |
| 2026-05-01 09:18 | -0.84330 | 131.12082 | 5630 ft | 278 kts | 290° |
| 2026-05-01 09:18 | -0.82778 | 131.07782 | 7230 ft | 286 kts | 290° |
| 2026-05-01 09:19 | -0.81417 | 131.04000 | 8498 ft | 293 kts | 290° |
| 2026-05-01 09:19 | -0.80958 | 131.02725 | 8916 ft | 295 kts | 290° |
| 2026-05-01 09:19 | -0.80259 | 131.00784 | 9536 ft | 298 kts | 290° |
| 2026-05-01 09:20 | -0.78814 | 130.96767 | 10286 ft | 324 kts | 291° |
| 2026-05-01 09:20 | -0.77207 | 130.92295 | 10719 ft | 354 kts | 291° |
| 2026-05-01 09:21 | -0.75519 | 130.87599 | 11813 ft | 362 kts | 291° |
| 2026-05-01 09:21 | -0.74675 | 130.85249 | 12394 ft | 365 kts | 291° |
| 2026-05-01 09:21 | -0.72946 | 130.80437 | 13526 ft | 372 kts | 291° |
| 2026-05-01 09:22 | -0.71177 | 130.75519 | 14626 ft | 379 kts | 291° |
| 2026-05-01 09:22 | -0.69378 | 130.70510 | 15728 ft | 387 kts | 291° |
| 2026-05-01 09:23 | -0.68467 | 130.67973 | 16277 ft | 389 kts | 291° |
| 2026-05-01 09:23 | -0.66619 | 130.62837 | 17302 ft | 396 kts | 291° |
| 2026-05-01 09:24 | -0.64744 | 130.57614 | 18231 ft | 403 kts | 290° |
| 2026-05-01 09:24 | -0.63791 | 130.54964 | 18718 ft | 405 kts | 290° |
| 2026-05-01 09:24 | -0.61863 | 130.49607 | 19601 ft | 413 kts | 290° |
| 2026-05-01 09:25 | -0.59905 | 130.44164 | 20426 ft | 419 kts | 290° |
| 2026-05-01 09:25 | -0.57931 | 130.38672 | 21194 ft | 425 kts | 290° |
| 2026-05-01 09:26 | -0.56919 | 130.35854 | 21581 ft | 428 kts | 291° |
| 2026-05-01 09:26 | -0.54905 | 130.30251 | 22280 ft | 435 kts | 291° |
| 2026-05-01 09:26 | -0.53880 | 130.27400 | 22637 ft | 437 kts | 291° |
| 2026-05-01 09:27 | -0.51812 | 130.21647 | 23306 ft | 442 kts | 291° |
| 2026-05-01 09:27 | -0.50769 | 130.18746 | 23628 ft | 445 kts | 291° |
| 2026-05-01 09:27 | -0.49716 | 130.15822 | 23929 ft | 447 kts | 291° |
| 2026-05-01 09:28 | -0.48661 | 130.12889 | 24216 ft | 450 kts | 291° |
| 2026-05-01 09:28 | -0.47598 | 130.09931 | 24517 ft | 452 kts | 291° |
| 2026-05-01 09:28 | -0.46530 | 130.06959 | 24828 ft | 454 kts | 291° |
| 2026-05-01 09:28 | -0.45474 | 130.04019 | 25106 ft | 456 kts | 291° |
| 2026-05-01 09:29 | -0.43316 | 129.98021 | 25683 ft | 460 kts | 291° |
| 2026-05-01 09:29 | -0.42230 | 129.95003 | 25950 ft | 462 kts | 291° |
| 2026-05-01 09:30 | -0.40043 | 129.88920 | 26459 ft | 467 kts | 291° |
| 2026-05-01 09:30 | -0.38944 | 129.85860 | 26725 ft | 468 kts | 291° |
| 2026-05-01 09:30 | -0.36731 | 129.79703 | 27208 ft | 472 kts | 291° |
| 2026-05-01 09:31 | -0.35620 | 129.76607 | 27442 ft | 474 kts | 291° |
| 2026-05-01 09:31 | -0.34500 | 129.73495 | 27685 ft | 475 kts | 291° |
| 2026-05-01 09:31 | -0.32269 | 129.67287 | 28104 ft | 479 kts | 291° |
| 2026-05-01 09:32 | -0.31139 | 129.64147 | 28328 ft | 481 kts | 291° |
| 2026-05-01 09:32 | -0.28868 | 129.57846 | 28767 ft | 483 kts | 291° |
| 2026-05-01 09:32 | -0.27728 | 129.54677 | 29010 ft | 484 kts | 291° |
| 2026-05-01 09:33 | -0.26592 | 129.51516 | 29316 ft | 483 kts | 291° |
| 2026-05-01 09:33 | -0.25458 | 129.48362 | 29653 ft | 481 kts | 291° |
| 2026-05-01 09:33 | -0.23189 | 129.42061 | 30212 ft | 481 kts | 291° |
| 2026-05-01 09:34 | -0.22062 | 129.38920 | 30503 ft | 480 kts | 291° |
| 2026-05-01 09:34 | -0.20935 | 129.35781 | 30814 ft | 479 kts | 291° |
| 2026-05-01 09:34 | -0.18699 | 129.29567 | 31406 ft | 478 kts | 291° |
| 2026-05-01 09:35 | -0.17577 | 129.26442 | 31717 ft | 477 kts | 291° |
| 2026-05-01 09:35 | -0.15332 | 129.20205 | 32383 ft | 475 kts | 291° |
| 2026-05-01 09:35 | -0.14217 | 129.17106 | 32689 ft | 474 kts | 291° |
| 2026-05-01 09:36 | -0.13110 | 129.13999 | 32984 ft | 473 kts | 290° |
| 2026-05-01 09:36 | -0.12040 | 129.10942 | 33282 ft | 472 kts | 290° |
| 2026-05-01 09:36 | -0.10966 | 129.07846 | 33588 ft | 471 kts | 290° |
| 2026-05-01 09:36 | -0.09894 | 129.04754 | 33860 ft | 470 kts | 290° |
| 2026-05-01 09:37 | -0.08826 | 129.01655 | 33888 ft | 473 kts | 289° |
| 2026-05-01 09:37 | -0.05595 | 128.92341 | 33882 ft | 468 kts | 290° |
| 2026-05-01 09:38 | -0.02409 | 128.83192 | 33906 ft | 466 kts | 290° |
| 2026-05-01 09:39 | 0.00789 | 128.73995 | 33902 ft | 467 kts | 289° |
| 2026-05-01 09:39 | 0.02929 | 128.67847 | 33901 ft | 468 kts | 289° |
| 2026-05-01 09:40 | 0.06137 | 128.58621 | 33908 ft | 468 kts | 289° |
| 2026-05-01 09:41 | 0.08264 | 128.52502 | 33907 ft | 469 kts | 289° |
| 2026-05-01 09:41 | 0.10045 | 128.47379 | 33907 ft | 469 kts | 289° |
| 2026-05-01 09:42 | 0.13610 | 128.37133 | 33906 ft | 469 kts | 289° |
| 2026-05-01 09:43 | 0.17835 | 128.24989 | 33907 ft | 469 kts | 289° |
| 2026-05-01 09:43 | 0.19966 | 128.18862 | 33908 ft | 469 kts | 289° |
| 2026-05-01 09:44 | 0.23180 | 128.09618 | 33907 ft | 469 kts | 289° |
| 2026-05-01 09:45 | 0.25321 | 128.03468 | 33904 ft | 468 kts | 289° |
| 2026-05-01 09:45 | 0.28513 | 127.94284 | 33918 ft | 467 kts | 289° |
| 2026-05-01 09:46 | 0.30651 | 127.88141 | 33919 ft | 468 kts | 289° |
| 2026-05-01 09:46 | 0.32785 | 127.82002 | 33918 ft | 467 kts | 289° |
| 2026-05-01 09:47 | 0.34918 | 127.75868 | 33916 ft | 467 kts | 289° |
| 2026-05-01 09:47 | 0.37046 | 127.69748 | 33909 ft | 466 kts | 289° |
| 2026-05-01 09:48 | 0.39181 | 127.63615 | 33918 ft | 466 kts | 289° |
| 2026-05-01 09:48 | 0.41310 | 127.57493 | 33917 ft | 467 kts | 289° |
| 2026-05-01 09:49 | 0.43427 | 127.51399 | 33917 ft | 467 kts | 289° |
| 2026-05-01 09:49 | 0.45557 | 127.45272 | 33921 ft | 467 kts | 289° |
| 2026-05-01 09:50 | 0.47691 | 127.39132 | 33921 ft | 467 kts | 289° |
| 2026-05-01 09:50 | 0.49827 | 127.32990 | 33924 ft | 467 kts | 289° |
| 2026-05-01 09:51 | 0.51948 | 127.26893 | 33928 ft | 467 kts | 289° |
| 2026-05-01 09:51 | 0.54082 | 127.20757 | 33926 ft | 467 kts | 289° |
| 2026-05-01 09:52 | 0.56221 | 127.14609 | 33928 ft | 468 kts | 289° |
| 2026-05-01 09:52 | 0.58344 | 127.08501 | 33927 ft | 468 kts | 289° |
| 2026-05-01 09:53 | 0.60480 | 127.02348 | 33924 ft | 469 kts | 289° |
| 2026-05-01 09:53 | 0.62274 | 126.97188 | 33929 ft | 469 kts | 290° |
| 2026-05-01 09:54 | 0.64762 | 126.90038 | 33923 ft | 469 kts | 289° |
| 2026-05-01 09:54 | 0.66899 | 126.83891 | 33924 ft | 468 kts | 290° |
| 2026-05-01 09:55 | 0.68992 | 126.77860 | 33907 ft | 446 kts | 290° |
| 2026-05-01 09:55 | 0.71017 | 126.72040 | 33924 ft | 441 kts | 290° |
| 2026-05-01 09:56 | 0.72023 | 126.69141 | 33679 ft | 444 kts | 290° |
| 2026-05-01 09:56 | 0.73033 | 126.66232 | 33370 ft | 439 kts | 290° |
| 2026-05-01 09:56 | 0.74020 | 126.63393 | 32967 ft | 436 kts | 290° |
| 2026-05-01 09:56 | 0.75012 | 126.60537 | 32596 ft | 433 kts | 290° |
| 2026-05-01 09:57 | 0.76003 | 126.57686 | 32209 ft | 431 kts | 290° |
| 2026-05-01 09:57 | 0.76984 | 126.54865 | 31825 ft | 428 kts | 290° |
| 2026-05-01 09:57 | 0.77932 | 126.52058 | 31444 ft | 426 kts | 287° |
| 2026-05-01 09:57 | 0.78664 | 126.49187 | 31048 ft | 424 kts | 283° |
| 2026-05-01 09:58 | 0.79248 | 126.46343 | 30668 ft | 422 kts | 282° |
| 2026-05-01 09:58 | 0.79797 | 126.43478 | 30287 ft | 420 kts | 281° |
| 2026-05-01 09:58 | 0.80354 | 126.40613 | 29903 ft | 417 kts | 282° |
| 2026-05-01 09:58 | 0.80923 | 126.37778 | 29526 ft | 414 kts | 282° |
| 2026-05-01 09:59 | 0.81503 | 126.34969 | 29139 ft | 412 kts | 283° |
| 2026-05-01 09:59 | 0.81901 | 126.33076 | 28879 ft | 410 kts | 283° |
| 2026-05-01 09:59 | 0.82484 | 126.30322 | 28495 ft | 408 kts | 283° |
| 2026-05-01 09:59 | 0.83271 | 126.26627 | 27979 ft | 405 kts | 283° |
| 2026-05-01 10:00 | 0.83856 | 126.23884 | 27600 ft | 403 kts | 283° |
| 2026-05-01 10:00 | 0.84243 | 126.22072 | 27345 ft | 401 kts | 283° |
| 2026-05-01 10:00 | 0.84822 | 126.19348 | 26965 ft | 399 kts | 283° |
| 2026-05-01 10:00 | 0.85399 | 126.16637 | 26580 ft | 397 kts | 283° |
| 2026-05-01 10:01 | 0.86157 | 126.13077 | 26084 ft | 394 kts | 283° |
| 2026-05-01 10:01 | 0.86726 | 126.10407 | 25717 ft | 392 kts | 283° |
| 2026-05-01 10:01 | 0.87294 | 126.07746 | 25355 ft | 390 kts | 283° |
| 2026-05-01 10:01 | 0.87858 | 126.05106 | 24985 ft | 388 kts | 283° |
| 2026-05-01 10:02 | 0.88419 | 126.02480 | 24616 ft | 385 kts | 283° |
| 2026-05-01 10:02 | 0.88978 | 125.99873 | 24248 ft | 383 kts | 283° |
| 2026-05-01 10:02 | 0.89533 | 125.97272 | 23881 ft | 381 kts | 283° |
| 2026-05-01 10:02 | 0.90082 | 125.94693 | 23516 ft | 379 kts | 283° |
| 2026-05-01 10:03 | 0.90445 | 125.92990 | 23267 ft | 377 kts | 283° |
| 2026-05-01 10:03 | 0.91174 | 125.89573 | 22789 ft | 374 kts | 283° |
| 2026-05-01 10:03 | 0.91714 | 125.87037 | 22427 ft | 372 kts | 283° |
| 2026-05-01 10:03 | 0.92250 | 125.84516 | 22066 ft | 370 kts | 283° |
| 2026-05-01 10:04 | 0.92778 | 125.82036 | 21712 ft | 368 kts | 283° |
| 2026-05-01 10:04 | 0.93309 | 125.79539 | 21353 ft | 366 kts | 283° |
| 2026-05-01 10:04 | 0.93839 | 125.77057 | 20999 ft | 364 kts | 283° |
| 2026-05-01 10:04 | 0.94367 | 125.74590 | 20640 ft | 362 kts | 283° |
| 2026-05-01 10:05 | 0.94891 | 125.72133 | 20292 ft | 360 kts | 283° |
| 2026-05-01 10:05 | 0.95412 | 125.69689 | 19941 ft | 358 kts | 283° |
| 2026-05-01 10:05 | 0.95756 | 125.68076 | 19713 ft | 357 kts | 283° |
| 2026-05-01 10:05 | 0.96269 | 125.65665 | 19365 ft | 355 kts | 283° |
| 2026-05-01 10:06 | 0.96785 | 125.63251 | 19018 ft | 353 kts | 283° |
| 2026-05-01 10:06 | 0.97463 | 125.60083 | 18616 ft | 349 kts | 283° |
| 2026-05-01 10:06 | 0.97805 | 125.58480 | 18422 ft | 347 kts | 283° |
| 2026-05-01 10:06 | 0.98303 | 125.56134 | 18137 ft | 343 kts | 283° |
| 2026-05-01 10:07 | 0.98793 | 125.53841 | 17851 ft | 340 kts | 283° |
| 2026-05-01 10:07 | 0.99283 | 125.51540 | 17571 ft | 336 kts | 283° |
| 2026-05-01 10:07 | 0.99769 | 125.49261 | 17295 ft | 333 kts | 283° |
| 2026-05-01 10:07 | 1.00251 | 125.47003 | 17020 ft | 331 kts | 283° |
| 2026-05-01 10:08 | 1.01207 | 125.42530 | 16480 ft | 326 kts | 283° |
| 2026-05-01 10:08 | 1.01677 | 125.40325 | 16206 ft | 325 kts | 283° |
| 2026-05-01 10:08 | 1.02147 | 125.38132 | 15948 ft | 327 kts | 283° |
| 2026-05-01 10:09 | 1.02625 | 125.35907 | 15681 ft | 327 kts | 283° |
| 2026-05-01 10:09 | 1.03097 | 125.33677 | 15401 ft | 328 kts | 283° |
| 2026-05-01 10:09 | 1.03574 | 125.31441 | 15135 ft | 329 kts | 283° |
| 2026-05-01 10:09 | 1.04052 | 125.29201 | 14863 ft | 330 kts | 283° |
| 2026-05-01 10:10 | 1.04532 | 125.26957 | 14587 ft | 330 kts | 283° |
| 2026-05-01 10:10 | 1.05010 | 125.24718 | 14305 ft | 327 kts | 283° |
| 2026-05-01 10:10 | 1.05947 | 125.20335 | 13761 ft | 321 kts | 283° |
| 2026-05-01 10:11 | 1.06410 | 125.18165 | 13496 ft | 317 kts | 283° |
| 2026-05-01 10:11 | 1.06868 | 125.16012 | 13241 ft | 315 kts | 283° |
| 2026-05-01 10:11 | 1.07324 | 125.13872 | 12978 ft | 313 kts | 283° |
| 2026-05-01 10:11 | 1.07774 | 125.11764 | 12721 ft | 312 kts | 283° |
| 2026-05-01 10:12 | 1.08231 | 125.09623 | 12461 ft | 310 kts | 283° |
| 2026-05-01 10:12 | 1.08677 | 125.07526 | 12207 ft | 308 kts | 283° |
| 2026-05-01 10:12 | 1.09554 | 125.03379 | 11778 ft | 307 kts | 279° |
| 2026-05-01 10:13 | 1.09451 | 125.01249 | 11510 ft | 311 kts | 252° |
| 2026-05-01 10:13 | 1.08408 | 124.99379 | 11277 ft | 310 kts | 225° |
| 2026-05-01 10:13 | 1.06645 | 124.98187 | 11026 ft | 306 kts | 197° |
| 2026-05-01 10:14 | 1.02473 | 124.98040 | 10553 ft | 301 kts | 172° |
| 2026-05-01 10:14 | 1.00393 | 124.98255 | 10289 ft | 300 kts | 173° |
| 2026-05-01 10:14 | 0.98338 | 124.98020 | 10073 ft | 299 kts | 201° |
| 2026-05-01 10:14 | 0.96645 | 124.96855 | 9848 ft | 297 kts | 228° |
| 2026-05-01 10:15 | 0.95640 | 124.95106 | 9614 ft | 294 kts | 253° |
| 2026-05-01 10:15 | 0.95440 | 124.93084 | 9387 ft | 294 kts | 278° |
| 2026-05-01 10:15 | 0.96079 | 124.91167 | 9145 ft | 292 kts | 303° |
| 2026-05-01 10:15 | 0.97440 | 124.89700 | 8903 ft | 287 kts | 329° |
| 2026-05-01 10:16 | 0.99255 | 124.88952 | 8665 ft | 282 kts | 353° |
| 2026-05-01 10:16 | 1.01193 | 124.88965 | 8440 ft | 277 kts | 14° |
| 2026-05-01 10:16 | 1.04707 | 124.90454 | 7990 ft | 274 kts | 27° |
| 2026-05-01 10:17 | 1.06425 | 124.91227 | 7755 ft | 275 kts | 24° |
| 2026-05-01 10:17 | 1.10063 | 124.92413 | 7300 ft | 275 kts | 16° |
| 2026-05-01 10:17 | 1.11932 | 124.92810 | 7071 ft | 274 kts | 12° |
| 2026-05-01 10:18 | 1.15683 | 124.93236 | 6612 ft | 268 kts | 5° |
| 2026-05-01 10:18 | 1.17545 | 124.93269 | 6391 ft | 266 kts | 1° |
| 2026-05-01 10:18 | 1.19391 | 124.93193 | 6180 ft | 264 kts | 358° |
| 2026-05-01 10:19 | 1.21215 | 124.93005 | 5961 ft | 263 kts | 354° |
| 2026-05-01 10:19 | 1.22989 | 124.92709 | 5740 ft | 259 kts | 351° |
| 2026-05-01 10:19 | 1.24721 | 124.92319 | 5518 ft | 251 kts | 348° |
| 2026-05-01 10:20 | 1.28007 | 124.91725 | 5101 ft | 229 kts | 2° |
| 2026-05-01 10:20 | 1.29550 | 124.91767 | 4914 ft | 215 kts | 5° |
| 2026-05-01 10:20 | 1.31021 | 124.91828 | 4725 ft | 207 kts | 5° |
| 2026-05-01 10:20 | 1.32434 | 124.91881 | 4565 ft | 199 kts | 5° |
| 2026-05-01 10:21 | 1.33783 | 124.91929 | 4436 ft | 188 kts | 4° |
| 2026-05-01 10:21 | 1.36419 | 124.92016 | 4022 ft | 194 kts | 5° |
| 2026-05-01 10:21 | 1.37750 | 124.92059 | 3744 ft | 193 kts | 5° |
| 2026-05-01 10:22 | 1.40398 | 124.92152 | 3182 ft | 184 kts | 5° |
| 2026-05-01 10:22 | 1.42849 | 124.92230 | 2664 ft | 167 kts | 5° |
| 2026-05-01 10:23 | 1.43966 | 124.92268 | 2465 ft | 159 kts | 5° |
| 2026-05-01 10:23 | 1.46153 | 124.92341 | 1971 ft | 156 kts | 3° |
| 2026-05-01 10:23 | 1.47238 | 124.92379 | 1776 ft | 155 kts | 3° |
| 2026-05-01 10:24 | 1.49414 | 124.92450 | 1300 ft | 156 kts | 3° |
| 2026-05-01 10:24 | 1.51284 | 124.92511 | 876 ft | 151 kts | 2° |
| 2026-05-01 10:25 | 1.53429 | 124.92581 | 434 ft | 153 kts | 2° |
| 2026-05-01 10:25 | 1.55193 | 124.92640 | 335 ft | 66 kts | 2° |
| 2026-05-01 10:26 | 1.55529 | 124.92651 | 336 ft | 36 kts | 2° |
| 2026-05-01 10:26 | 1.55657 | 124.92614 | 334 ft | 16 kts | 292° |
| 2026-05-01 10:26 | 1.55558 | 124.92488 | 335 ft | 15 kts | 181° |
| 2026-05-01 10:27 | 1.55363 | 124.92482 | 335 ft | 13 kts | 182° |
| 2026-05-01 10:27 | 1.55181 | 124.92475 | 335 ft | 14 kts | 180° |
| 2026-05-01 10:28 | 1.55088 | 124.92473 | 335 ft | 13 kts | 183° |
| 2026-05-01 10:28 | 1.54912 | 124.92464 | 335 ft | 12 kts | 183° |
| 2026-05-01 10:28 | 1.54828 | 124.92462 | 335 ft | 12 kts | 181° |
| 2026-05-01 10:29 | 1.54665 | 124.92458 | 335 ft | 11 kts | 181° |
| 2026-05-01 10:29 | 1.54586 | 124.92455 | 335 ft | 11 kts | 183° |
| 2026-05-01 10:30 | 1.54436 | 124.92450 | 335 ft | 10 kts | 184° |
| 2026-05-01 10:30 | 1.54300 | 124.92415 | 335 ft | 10 kts | 184° |
| 2026-05-01 10:31 | 1.54289 | 124.92415 | 335 ft | 0 kts | 184° |
| 2026-05-01 10:31 | 1.54281 | 124.92406 | 335 ft | 2 kts | 271° |
| 2026-05-01 10:32 | 1.54308 | 124.92356 | 335 ft | 1 kts | 310° |
| 2026-05-01 10:32 | 1.54314 | 124.92348 | 335 ft | 1 kts | 310° |
| 2026-05-01 10:32 | 1.54317 | 124.92345 | 335 ft | 0 kts | 310° |